createdAt,value
2022-10-18T00:00:38.913Z,85.50
2022-10-18T00:03:06.354Z,85.60
2022-10-18T00:05:34.732Z,85.70
2022-10-18T00:08:02.425Z,85.80
2022-10-18T00:10:29.944Z,85.80
2022-10-18T00:12:57.665Z,85.80
2022-10-18T00:15:24.941Z,85.90
2022-10-18T00:17:52.196Z,86.00
2022-10-18T00:20:22.316Z,86.00
2022-10-18T00:22:49.431Z,86.00
2022-10-18T00:25:17.153Z,85.90
2022-10-18T00:27:44.919Z,85.90
2022-10-18T00:30:12.279Z,86.00
2022-10-18T00:32:40.439Z,86.00
2022-10-18T00:35:08.285Z,86.00
2022-10-18T00:37:36.038Z,86.10
2022-10-18T00:40:03.565Z,86.10
2022-10-18T00:42:34.254Z,86.10
2022-10-18T00:45:05.628Z,86.00
2022-10-18T00:47:33.648Z,85.90
2022-10-18T00:50:03.414Z,85.90
2022-10-18T00:52:51.845Z,86.00
2022-10-18T00:55:19.800Z,86.10
2022-10-18T00:57:47.153Z,86.10
2022-10-18T01:00:14.748Z,86.10
2022-10-18T01:02:43.089Z,86.20
2022-10-18T01:05:11.382Z,86.20
2022-10-18T01:07:48.003Z,86.30
2022-10-18T01:10:15.142Z,86.30
2022-10-18T01:12:54.732Z,86.50
2022-10-18T01:15:21.849Z,86.60
2022-10-18T01:18:00.938Z,86.60
2022-10-18T01:20:28.245Z,86.60
2022-10-18T01:23:05.871Z,86.60
2022-10-18T01:25:40.719Z,86.60
2022-10-18T01:28:10.189Z,86.70
2022-10-18T01:30:46.033Z,86.60
2022-10-18T01:33:19.961Z,86.60
2022-10-18T01:35:49.874Z,86.60
2022-10-18T01:38:18.031Z,86.70
2022-10-18T01:40:47.360Z,86.60
2022-10-18T01:43:14.779Z,86.60
2022-10-18T01:45:41.848Z,86.50
2022-10-18T01:48:10.508Z,86.30
2022-10-18T01:50:37.251Z,86.30
2022-10-18T01:53:03.998Z,86.30
2022-10-18T01:55:39.170Z,86.30
2022-10-18T01:58:05.887Z,86.20
2022-10-18T02:00:42.551Z,86.30
2022-10-18T02:03:28.060Z,86.30
2022-10-18T02:06:13.712Z,86.40
2022-10-18T02:08:43.483Z,86.30
2022-10-18T02:11:12.440Z,86.30
2022-10-18T02:13:44.157Z,86.20
2022-10-18T02:16:13.309Z,86.10
2022-10-18T02:18:41.769Z,86.00
2022-10-18T02:21:10.729Z,86.00
2022-10-18T02:23:38.477Z,85.90
2022-10-18T02:26:05.646Z,86.00
2022-10-18T02:28:32.479Z,86.10
2022-10-18T02:31:03.910Z,86.10
2022-10-18T02:33:43.013Z,86.00
2022-10-18T02:36:19.374Z,86.00
2022-10-18T02:38:47.022Z,86.00
2022-10-18T02:41:21.864Z,85.90
2022-10-18T02:43:48.612Z,86.00
2022-10-18T02:46:15.427Z,86.10
2022-10-18T02:48:42.185Z,86.10
2022-10-18T02:51:08.918Z,86.10
2022-10-18T02:53:35.620Z,86.10
2022-10-18T02:56:03.361Z,86.10
2022-10-18T02:58:30.069Z,86.10
2022-10-18T03:00:56.791Z,86.10
2022-10-18T03:03:23.512Z,86.00
2022-10-18T03:05:50.783Z,86.00
2022-10-18T03:08:17.803Z,86.00
2022-10-18T03:10:45.411Z,85.90
2022-10-18T03:13:12.437Z,85.80
2022-10-18T03:15:39.191Z,85.90
2022-10-18T03:18:05.932Z,85.90
2022-10-18T03:20:33.200Z,85.90
2022-10-18T03:23:00.151Z,85.80
2022-10-18T03:25:26.864Z,85.90
2022-10-18T03:27:53.619Z,85.90
2022-10-18T03:30:20.386Z,85.90
2022-10-18T03:32:47.065Z,86.00
2022-10-18T03:35:13.803Z,86.00
2022-10-18T03:37:40.539Z,86.00
2022-10-18T03:40:07.747Z,86.10
2022-10-18T03:42:34.826Z,86.10
2022-10-18T03:45:01.690Z,86.10
2022-10-18T03:47:28.395Z,86.10
2022-10-18T03:49:57.194Z,86.10
2022-10-18T03:52:24.413Z,86.10
2022-10-18T03:54:51.124Z,86.10
2022-10-18T03:57:17.842Z,86.20
2022-10-18T03:59:44.670Z,86.20
2022-10-18T04:02:11.441Z,86.30
2022-10-18T04:04:38.141Z,86.30
2022-10-18T04:07:04.858Z,86.30
2022-10-18T04:09:31.569Z,86.30
2022-10-18T04:11:58.316Z,86.30
2022-10-18T04:14:25.076Z,86.40
2022-10-18T04:16:51.781Z,86.40
2022-10-18T04:19:18.569Z,86.30
2022-10-18T04:21:45.412Z,86.30
2022-10-18T04:24:12.099Z,86.20
2022-10-18T04:26:38.766Z,86.30
2022-10-18T04:29:05.601Z,86.30
2022-10-18T04:31:32.452Z,86.30
2022-10-18T04:33:59.201Z,86.30
2022-10-18T04:36:25.916Z,86.30
2022-10-18T04:38:52.626Z,86.30
2022-10-18T04:41:19.362Z,86.20
2022-10-18T04:46:32.714Z,86.30
2022-10-18T04:49:01.259Z,86.30
2022-10-18T04:51:28.599Z,86.30
2022-10-18T04:53:55.352Z,86.30
2022-10-18T04:56:22.179Z,86.30
2022-10-18T04:58:49.079Z,86.20
2022-10-18T05:01:17.263Z,86.20
2022-10-18T05:03:44.099Z,86.20
2022-10-18T05:06:10.990Z,86.20
2022-10-18T05:08:38.503Z,86.20
2022-10-18T05:11:05.339Z,86.10
2022-10-18T05:13:32.245Z,86.20
2022-10-18T05:16:00.216Z,86.30
2022-10-18T05:18:27.030Z,86.20
2022-10-18T05:20:53.798Z,86.30
2022-10-18T05:23:20.538Z,86.20
2022-10-18T05:25:47.314Z,86.20
2022-10-18T05:28:38.816Z,86.20
2022-10-18T05:31:02.676Z,86.30
2022-10-18T05:33:29.820Z,86.30
2022-10-18T05:35:56.662Z,86.30
2022-10-18T05:38:23.455Z,86.30
2022-10-18T05:40:50.286Z,86.40
2022-10-18T05:43:17.855Z,86.40
2022-10-18T05:45:51.127Z,86.50
2022-10-18T05:48:18.395Z,86.60
2022-10-18T05:50:45.411Z,86.70
2022-10-18T05:53:18.534Z,86.80
2022-10-18T05:56:02.437Z,86.80
2022-10-18T05:58:29.207Z,86.80
2022-10-18T06:00:58.826Z,86.90
2022-10-18T06:03:25.851Z,86.90
2022-10-18T06:05:52.573Z,87.10
2022-10-18T06:08:19.307Z,87.10
2022-10-18T06:10:46.055Z,87.10
2022-10-18T06:13:12.815Z,87.00
2022-10-18T06:15:39.786Z,87.10
2022-10-18T06:18:06.591Z,87.80
2022-10-18T06:20:33.308Z,88.00
2022-10-18T06:23:00.064Z,88.60
2022-10-18T06:25:26.869Z,88.70
2022-10-18T06:27:53.652Z,88.70
2022-10-18T06:30:20.363Z,88.60
2022-10-18T06:32:47.113Z,88.50
2022-10-18T06:35:13.910Z,88.40
2022-10-18T06:37:40.675Z,88.40
2022-10-18T06:40:07.679Z,88.50
2022-10-18T06:42:34.763Z,88.70
2022-10-18T06:45:01.710Z,88.90
2022-10-18T06:47:28.424Z,89.20
2022-10-18T06:49:55.142Z,89.20
2022-10-18T06:52:25.662Z,88.80
2022-10-18T06:54:52.926Z,88.40
2022-10-18T06:57:20.282Z,88.10
2022-10-18T06:59:47.214Z,88.00
2022-10-18T07:02:17.481Z,88.00
2022-10-18T07:04:44.206Z,88.00
2022-10-18T07:07:10.963Z,88.10
2022-10-18T07:09:37.711Z,88.20
2022-10-18T07:12:04.579Z,88.60
2022-10-18T07:14:31.415Z,88.70
2022-10-18T07:17:01.312Z,88.90
2022-10-18T07:19:28.167Z,88.70
2022-10-18T07:21:54.929Z,88.30
2022-10-18T07:24:21.731Z,87.70
2022-10-18T07:26:48.619Z,87.20
2022-10-18T07:29:15.586Z,86.80
2022-10-18T07:31:42.407Z,86.70
2022-10-18T07:34:14.761Z,86.30
2022-10-18T07:36:41.948Z,86.00
2022-10-18T07:39:08.791Z,85.80
2022-10-18T07:41:35.756Z,85.70
2022-10-18T07:44:04.090Z,85.80
2022-10-18T07:46:31.103Z,85.90
2022-10-18T07:49:00.932Z,86.10
2022-10-18T07:51:28.191Z,85.70
2022-10-18T07:53:55.024Z,85.40
2022-10-18T07:56:22.422Z,85.30
2022-10-18T07:58:55.595Z,85.30
2022-10-18T08:01:24.295Z,85.50
2022-10-18T08:03:52.152Z,85.60
2022-10-18T08:06:20.770Z,85.70
2022-10-18T08:08:47.707Z,85.70
2022-10-18T08:11:17.345Z,85.60
2022-10-18T08:13:44.575Z,85.60
2022-10-18T08:16:21.059Z,85.50
2022-10-18T08:18:48.499Z,85.50
2022-10-18T08:21:16.734Z,85.30
2022-10-18T08:23:44.187Z,85.40
2022-10-18T08:26:16.696Z,85.60
2022-10-18T08:28:53.622Z,85.60
2022-10-18T08:31:31.103Z,85.40
2022-10-18T08:33:58.083Z,85.20
2022-10-18T08:36:25.070Z,85.10
2022-10-18T08:38:52.000Z,85.30
2022-10-18T08:41:30.134Z,85.10
2022-10-18T08:44:04.787Z,84.80
2022-10-18T08:46:36.753Z,84.60
2022-10-18T08:49:04.401Z,84.50
2022-10-18T08:51:51.306Z,84.40
2022-10-18T08:54:49.552Z,84.30
2022-10-18T08:57:18.361Z,84.40
2022-10-18T08:59:45.284Z,84.30
2022-10-18T09:02:42.659Z,84.00
2022-10-18T09:05:24.574Z,83.80
2022-10-18T09:08:23.103Z,83.60
2022-10-18T09:11:48.342Z,83.50
2022-10-18T09:14:28.166Z,83.50
2022-10-18T09:16:54.942Z,83.10
2022-10-18T09:19:37.061Z,83.10
2022-10-18T09:22:19.220Z,83.20
2022-10-18T09:25:22.475Z,83.20
2022-10-18T09:28:03.712Z,83.20
2022-10-18T09:31:09.999Z,83.20
2022-10-18T09:33:46.146Z,83.20
2022-10-18T09:36:39.896Z,83.20
2022-10-18T09:39:09.849Z,83.10
2022-10-18T09:41:45.318Z,82.90
2022-10-18T09:44:18.120Z,82.80
2022-10-18T09:46:50.788Z,82.70
2022-10-18T09:49:40.390Z,82.50
2022-10-18T09:52:13.850Z,83.00
2022-10-18T09:54:43.763Z,82.90
2022-10-18T09:57:17.828Z,82.90
2022-10-18T09:59:49.802Z,82.40
2022-10-18T10:02:22.357Z,82.30
2022-10-18T10:04:54.293Z,81.80
2022-10-18T10:07:28.654Z,81.50
2022-10-18T10:10:12.689Z,81.30
2022-10-18T10:12:40.407Z,81.20
2022-10-18T10:15:08.962Z,80.70
2022-10-18T10:17:35.899Z,80.20
2022-10-18T10:20:05.383Z,79.30
2022-10-18T10:22:35.471Z,78.80
2022-10-18T10:25:02.436Z,76.60
2022-10-18T10:27:32.685Z,75.20
2022-10-18T10:30:04.345Z,73.60
2022-10-18T10:32:45.391Z,72.50
2022-10-18T10:35:35.317Z,70.70
2022-10-18T10:38:22.784Z,70.40
2022-10-18T10:40:50.866Z,70.80
2022-10-18T10:43:38.921Z,70.80
2022-10-18T10:46:08.904Z,70.50
2022-10-18T10:48:50.668Z,68.70
2022-10-18T10:51:39.058Z,67.10
2022-10-18T10:54:14.307Z,65.40
2022-10-18T10:56:52.063Z,65.00
2022-10-18T10:59:20.725Z,64.50
2022-10-18T11:01:50.538Z,64.90
2022-10-18T11:04:28.652Z,63.80
2022-10-18T11:07:07.856Z,62.80
2022-10-18T11:09:41.862Z,61.50
2022-10-18T11:12:14.767Z,60.20
2022-10-18T11:14:44.878Z,59.60
2022-10-18T11:17:14.718Z,57.60
2022-10-18T11:19:53.762Z,56.40
2022-10-18T11:22:22.342Z,56.20
2022-10-18T11:24:49.830Z,55.40
2022-10-18T11:27:28.316Z,55.70
2022-10-18T11:30:25.490Z,56.40
2022-10-18T11:33:38.288Z,57.10
2022-10-18T11:36:40.387Z,57.30
2022-10-18T11:39:22.953Z,58.10
2022-10-18T11:41:54.656Z,58.30
2022-10-18T11:44:21.547Z,57.80
2022-10-18T11:46:48.401Z,57.80
2022-10-18T11:49:28.078Z,58.40
2022-10-18T11:52:08.005Z,57.80
2022-10-18T11:54:41.572Z,57.50
2022-10-18T11:57:17.683Z,57.10
2022-10-18T12:00:03.370Z,55.40
2022-10-18T12:02:53.873Z,55.20
2022-10-18T12:05:24.051Z,55.50
2022-10-18T12:07:51.423Z,56.30
2022-10-18T12:10:31.409Z,57.30
2022-10-18T12:13:08.120Z,57.10
2022-10-18T12:15:36.776Z,57.10
2022-10-18T12:18:06.310Z,56.00
2022-10-18T12:20:35.067Z,54.30
2022-10-18T12:23:17.017Z,53.70
2022-10-18T12:25:46.665Z,52.90
2022-10-18T12:28:24.110Z,52.80
2022-10-18T12:30:56.861Z,52.80
2022-10-18T12:33:28.637Z,52.10
2022-10-18T12:35:58.927Z,52.40
2022-10-18T12:38:28.246Z,52.40
2022-10-18T12:40:55.343Z,52.80
2022-10-18T12:43:26.166Z,53.30
2022-10-18T12:45:57.803Z,53.40
2022-10-18T12:48:27.642Z,53.10
2022-10-18T12:50:58.381Z,53.60
2022-10-18T12:53:33.062Z,53.10
2022-10-18T12:56:38.571Z,52.90
2022-10-18T12:59:14.472Z,53.10
2022-10-18T13:01:50.330Z,53.00
2022-10-18T13:04:32.937Z,52.60
2022-10-18T13:06:59.823Z,52.80
2022-10-18T13:09:30.773Z,51.30
2022-10-18T13:12:09.853Z,51.60
2022-10-18T13:15:25.394Z,52.30
2022-10-18T13:18:01.185Z,54.10
2022-10-18T13:20:28.085Z,54.50
2022-10-18T13:23:27.728Z,54.70
2022-10-18T13:25:54.451Z,55.30
2022-10-18T13:28:40.035Z,55.90
2022-10-18T13:31:32.947Z,56.60
2022-10-18T13:34:16.705Z,56.30
2022-10-18T13:36:43.513Z,54.60
2022-10-18T13:39:18.956Z,52.20
2022-10-18T13:41:45.943Z,51.30
2022-10-18T13:44:28.958Z,51.10
2022-10-18T13:46:55.663Z,50.50
2022-10-18T13:49:31.535Z,50.00
2022-10-18T13:52:03.626Z,49.30
2022-10-18T13:54:30.402Z,49.60
2022-10-18T13:57:16.196Z,50.00
2022-10-18T13:59:49.077Z,51.00
2022-10-18T14:02:50.950Z,52.20
2022-10-18T14:05:38.058Z,52.50
2022-10-18T14:08:10.685Z,53.10
2022-10-18T14:11:01.425Z,53.70
2022-10-18T14:13:33.963Z,53.90
2022-10-18T14:16:10.855Z,53.70
2022-10-18T14:18:40.871Z,52.80
2022-10-18T14:21:16.843Z,53.20
2022-10-18T14:23:46.286Z,53.90
2022-10-18T14:26:20.032Z,55.60
2022-10-18T14:29:01.450Z,54.70
2022-10-18T14:31:28.328Z,53.80
2022-10-18T14:33:59.207Z,53.10
2022-10-18T14:36:27.212Z,52.90
2022-10-18T14:38:56.285Z,51.60
2022-10-18T14:41:36.625Z,51.70
2022-10-18T14:44:11.794Z,52.40
2022-10-18T14:46:42.788Z,52.50
2022-10-18T14:49:13.614Z,51.90
2022-10-18T14:51:41.976Z,52.40
2022-10-18T14:54:20.143Z,52.40
2022-10-18T14:56:47.446Z,53.10
2022-10-18T14:59:22.837Z,53.30
2022-10-18T15:01:55.379Z,54.00
2022-10-18T15:04:27.731Z,55.00
2022-10-18T15:06:55.672Z,54.50
2022-10-18T15:09:23.221Z,54.30
2022-10-18T15:11:54.859Z,55.00
2022-10-18T15:14:21.877Z,54.80
2022-10-18T15:16:50.674Z,54.60
2022-10-18T15:19:17.381Z,54.30
2022-10-18T15:22:08.027Z,54.40
2022-10-18T15:24:41.706Z,55.50
2022-10-18T15:27:08.423Z,55.50
2022-10-18T15:29:36.902Z,55.70
2022-10-18T15:32:25.673Z,56.40
2022-10-18T15:34:53.118Z,57.60
2022-10-18T15:37:32.510Z,56.40
2022-10-18T15:40:18.632Z,56.10
2022-10-18T17:01:41.554Z,62.60
2022-10-18T17:04:08.676Z,62.60
2022-10-18T17:06:35.374Z,62.90
2022-10-18T17:09:02.085Z,63.00
2022-10-18T17:11:28.975Z,62.60
2022-10-18T17:13:55.739Z,62.50
2022-10-18T17:16:22.490Z,62.80
2022-10-18T17:36:17.314Z,65.80
2022-10-18T17:38:46.760Z,65.90
2022-10-18T17:41:13.765Z,66.40
2022-10-18T17:43:44.092Z,66.30
2022-10-18T17:46:11.760Z,66.40
2022-10-18T17:48:38.528Z,66.80
2022-10-18T17:51:08.954Z,67.20
2022-10-18T17:53:35.786Z,67.40
2022-10-18T17:56:03.167Z,67.60
2022-10-18T17:58:30.234Z,68.10
2022-10-18T18:00:57.079Z,68.20
2022-10-18T18:03:23.904Z,68.20
2022-10-18T18:05:50.661Z,68.50
2022-10-18T18:08:17.437Z,68.90
2022-10-18T18:10:44.280Z,69.00
2022-10-18T18:13:11.201Z,69.80
2022-10-18T18:15:38.744Z,71.30
2022-10-18T18:18:05.492Z,70.50
2022-10-18T18:20:32.181Z,69.80
2022-10-18T18:22:58.967Z,69.40
2022-10-18T18:25:25.700Z,69.40
2022-10-18T18:27:53.979Z,69.90
2022-10-18T18:30:21.905Z,70.10
2022-10-18T18:32:48.555Z,70.40
2022-10-18T18:35:15.270Z,70.70
2022-10-18T18:37:42.041Z,70.70
2022-10-18T18:40:08.971Z,70.90
2022-10-18T18:42:36.074Z,71.30
2022-10-18T18:45:03.350Z,71.30
2022-10-18T18:47:35.776Z,71.30
2022-10-18T18:50:02.572Z,71.40
2022-10-18T18:52:29.463Z,71.40
2022-10-18T18:54:56.309Z,71.30
2022-10-18T18:57:23.113Z,71.90
2022-10-18T18:59:50.114Z,71.90
2022-10-18T19:02:16.833Z,72.70
2022-10-18T19:04:43.595Z,72.40
2022-10-18T19:07:10.341Z,72.20
2022-10-18T19:09:38.738Z,72.10
2022-10-18T19:12:05.619Z,71.90
2022-10-18T19:14:32.393Z,72.10
2022-10-18T19:16:59.301Z,72.30
2022-10-18T19:19:27.254Z,72.00
2022-10-18T19:21:55.164Z,72.00
2022-10-18T19:24:22.536Z,71.90
2022-10-18T19:26:50.454Z,72.10
2022-10-18T19:29:19.198Z,72.10
2022-10-18T19:31:45.971Z,72.20
2022-10-18T19:34:13.717Z,72.40
2022-10-18T19:36:41.176Z,72.60
2022-10-18T19:39:08.811Z,72.50
2022-10-18T19:41:35.594Z,72.40
2022-10-18T19:44:02.334Z,72.40
2022-10-18T19:46:29.144Z,72.50
2022-10-18T19:48:55.958Z,72.50
2022-10-18T19:51:25.474Z,72.70
2022-10-18T19:53:55.234Z,73.00
2022-10-18T19:56:23.291Z,73.00
2022-10-18T19:58:50.631Z,73.10
2022-10-18T20:01:18.349Z,73.30
2022-10-18T20:03:45.778Z,73.50
2022-10-18T20:06:12.571Z,73.20
2022-10-18T20:08:39.629Z,73.10
